»·PEaware :: N7FJ KHWD-L52

N7FJ :: KHWD-L52

FLIGHT INFORMATION

Flight Status: Arrived
Operator: Privately registered:
United States
More flights under this callsign
Pilot: Zuqi C. (19949)
Aircraft: SOCATA TBM-900
(TBM9)
More flights by this aircraft type
Origin: KHWD Hayward Executive
United States
Destination: L52 Oceano Co
United States
More flights between these airports :: More routes between these airports
Route: +OSI V25 POZOE
File this flight plan on PilotEdge
Remarks:
Altitude:
(Current/Filed)
17,000ft
Speed:
(Current/Filed)
290kts
Departed: 02-Jun-19 04:45 PM
Arrived: 02-Jun-19 05:42 PM
Distance/Time
Traveled:
170nm/0:57
Distance/Time
To Go:
Arrived

Flight Plot

Page will automatically refresh every two minutes.

Flight plan parsing failed; only flown route is shown


Map Options




Map Legend


Flown Route
Filed Route
Departure Airport
Arrival Airport
Navaid (VOR, NDB)
Fix

Horizontal Profiles

Position Reports

Time Latitude Longitude Heading Altitude Ground
Speed
02-Jun-19 16:25 37.662109 -122.122108 207 31ft 0kts
02-Jun-19 16:26 37.662109 -122.122109 207 31ft 0kts
02-Jun-19 16:27 37.662109 -122.122109 207 31ft 0kts
02-Jun-19 16:28 37.662109 -122.122108 207 31ft 0kts
02-Jun-19 16:29 37.662109 -122.122109 207 31ft 0kts
02-Jun-19 16:30 37.662109 -122.122109 207 31ft 0kts
02-Jun-19 16:31 37.662109 -122.122109 207 31ft 0kts
02-Jun-19 16:32 37.662109 -122.122109 207 31ft 0kts
02-Jun-19 16:33 37.661997 -122.122126 148 31ft 7kts
02-Jun-19 16:34 37.660298 -122.120736 120 33ft 11kts
02-Jun-19 16:35 37.658561 -122.117204 159 39ft 11kts
02-Jun-19 16:36 37.658487 -122.117488 297 39ft 0kts
02-Jun-19 16:37 37.658487 -122.117488 297 39ft 0kts
02-Jun-19 16:38 37.658487 -122.117488 297 39ft 0kts
02-Jun-19 16:39 37.658487 -122.117488 297 39ft 0kts
02-Jun-19 16:40 37.658487 -122.117488 297 39ft 0kts
02-Jun-19 16:41 37.658487 -122.117488 297 39ft 0kts
02-Jun-19 16:42 37.658487 -122.117488 297 39ft 0kts
02-Jun-19 16:43 37.658407 -122.118349 298 37ft 21kts
02-Jun-19 16:44 37.649869 -122.141052 157 1302ft 157kts
02-Jun-19 16:45 37.604136 -122.154664 209 2793ft 186kts
02-Jun-19 16:46 37.556386 -122.183315 208 4573ft 193kts
02-Jun-19 16:47 37.503081 -122.215258 208 5021ft 238kts
02-Jun-19 16:48 37.440670 -122.252558 208 5026ft 251kts
02-Jun-19 16:49 37.386279 -122.278038 164 7608ft 207kts
02-Jun-19 16:50 37.332130 -122.250788 157 9479ft 214kts
02-Jun-19 16:51 37.276475 -122.222666 156 11388ft 218kts
02-Jun-19 16:52 37.219548 -122.193953 155 13245ft 225kts
02-Jun-19 16:53 37.160730 -122.164316 155 14954ft 232kts
02-Jun-19 16:54 37.099353 -122.133406 155 16532ft 242kts
02-Jun-19 16:55 37.031353 -122.099195 155 17012ft 289kts
02-Jun-19 16:56 36.961818 -122.047690 125 17042ft 296kts
02-Jun-19 16:57 36.908605 -121.967262 126 17021ft 301kts
02-Jun-19 16:58 36.854755 -121.886806 126 17014ft 301kts
02-Jun-19 16:59 36.800957 -121.806644 126 17009ft 301kts
02-Jun-19 17:00 36.746968 -121.726387 126 17001ft 301kts
02-Jun-19 17:02 36.692935 -121.646259 126 16998ft 301kts
02-Jun-19 17:03 36.633212 -121.572451 137 16999ft 304kts
02-Jun-19 17:04 36.567247 -121.506633 137 16999ft 304kts
02-Jun-19 17:05 36.500987 -121.440585 137 16999ft 304kts
02-Jun-19 17:06 36.434676 -121.374636 137 17000ft 304kts
02-Jun-19 17:07 36.368290 -121.308767 138 17025ft 304kts
02-Jun-19 17:08 36.302264 -121.243402 138 17047ft 304kts
02-Jun-19 17:09 36.236137 -121.178064 138 17044ft 305kts
02-Jun-19 17:10 36.169603 -121.112478 139 17032ft 305kts
02-Jun-19 17:11 36.102699 -121.046689 140 17014ft 305kts
02-Jun-19 17:12 36.036058 -120.981310 140 17003ft 304kts
02-Jun-19 17:13 35.970013 -120.916669 140 17001ft 302kts
02-Jun-19 17:14 35.903363 -120.851547 140 16429ft 318kts
02-Jun-19 17:15 35.834913 -120.784825 141 14924ft 308kts
02-Jun-19 17:16 35.768413 -120.720157 141 13417ft 302kts
02-Jun-19 17:17 35.703986 -120.657640 141 11902ft 286kts
02-Jun-19 17:18 35.639719 -120.602566 148 10384ft 280kts
02-Jun-19 17:19 35.573625 -120.553188 149 8977ft 277kts
02-Jun-19 17:20 35.510307 -120.505992 149 8965ft 265kts
02-Jun-19 17:20 35.458639 -120.467524 148 8976ft 267kts
02-Jun-19 17:22 35.382702 -120.411080 148 8993ft 265kts
02-Jun-19 17:23 35.319537 -120.364230 148 8998ft 264kts
02-Jun-19 17:23 35.267021 -120.325346 148 8402ft 258kts
02-Jun-19 17:24 35.206368 -120.280505 149 6884ft 252kts
02-Jun-19 17:25 35.148951 -120.279856 252 5981ft 230kts
02-Jun-19 17:26 35.144754 -120.354415 259 5997ft 219kts
02-Jun-19 17:27 35.132980 -120.427655 259 4355ft 219kts
02-Jun-19 17:28 35.121618 -120.498101 260 2976ft 189kts
02-Jun-19 17:29 35.113088 -120.550923 260 2977ft 133kts
02-Jun-19 17:30 35.106837 -120.589514 260 2993ft 130kts
02-Jun-19 17:31 35.097862 -120.644992 259 3012ft 186kts
02-Jun-19 17:32 35.087475 -120.712498 259 2996ft 210kts
02-Jun-19 17:33 35.111637 -120.766528 307 2797ft 213kts
02-Jun-19 17:34 35.090338 -120.806266 144 1974ft 176kts
02-Jun-19 17:35 35.082238 -120.753267 92 1979ft 150kts
02-Jun-19 17:36 35.084626 -120.701989 82 1123ft 160kts
02-Jun-19 17:37 35.091681 -120.655168 77 954ft 111kts
02-Jun-19 17:38 35.078384 -120.625595 124 1009ft 107kts
02-Jun-19 17:39 35.073819 -120.597145 37 707ft 96kts
02-Jun-19 17:40 35.093084 -120.606700 307 300ft 94kts
02-Jun-19 17:41 35.102458 -120.624053 331 17ft 8kts
02-Jun-19 17:42 35.103357 -120.624837 303 17ft 0kts
02-Jun-19 17:43 35.103356 -120.624837 303 17ft 0kts
02-Jun-19 17:44 35.103377 -120.624695 211 17ft 0kts
02-Jun-19 17:45 35.103370 -120.624699 210 17ft 0kts
02-Jun-19 17:46 35.103370 -120.624699 210 17ft 0kts
02-Jun-19 17:47 35.103370 -120.624699 210 17ft 0kts
02-Jun-19 17:48 35.103370 -120.624699 210 17ft 0kts
02-Jun-19 17:49 35.103370 -120.624699 210 17ft 0kts
02-Jun-19 17:50 35.103370 -120.624699 210 17ft 0kts
02-Jun-19 17:51 35.103370 -120.624699 210 17ft 0kts
02-Jun-19 17:52 35.103370 -120.624699 210 17ft 0kts
02-Jun-19 17:53 35.103370 -120.624699 210 17ft 0kts
02-Jun-19 17:54 35.103370 -120.624699 210 17ft 0kts
02-Jun-19 17:55 35.103370 -120.624699 210 17ft 0kts

Navigation Log

Ident Type
Flight plan parsing failed, navigation log unavailable